createdAt,value
2023-05-01T00:02:04.420Z,66.02
2023-05-01T00:04:33.851Z,66.56
2023-05-01T00:07:00.629Z,66.56
2023-05-01T00:09:28.067Z,66.61
2023-05-01T00:11:54.767Z,66.76
2023-05-01T00:14:21.808Z,65.96
2023-05-01T00:16:48.592Z,66.00
2023-05-01T00:19:19.212Z,66.33
2023-05-01T00:21:48.031Z,66.40
2023-05-01T00:24:16.768Z,66.72
2023-05-01T00:26:43.525Z,66.61
2023-05-01T00:29:10.259Z,66.46
2023-05-01T00:31:37.267Z,66.88
2023-05-01T00:34:05.376Z,66.78
2023-05-01T00:36:32.813Z,67.22
2023-05-01T00:38:59.596Z,66.86
2023-05-01T00:41:26.541Z,66.02
2023-05-01T00:43:53.555Z,66.30
2023-05-01T00:46:20.563Z,66.25
2023-05-01T00:48:47.424Z,66.38
2023-05-01T00:51:15.905Z,66.17
2023-05-01T00:53:43.692Z,66.63
2023-05-01T00:56:11.324Z,66.72
2023-05-01T00:58:38.513Z,66.38
2023-05-01T01:01:05.638Z,66.91
2023-05-01T01:03:32.476Z,66.98
2023-05-01T01:06:08.397Z,67.08
2023-05-01T01:08:50.209Z,67.66
2023-05-01T01:11:21.843Z,67.27
2023-05-01T01:13:57.312Z,67.44
2023-05-01T01:16:30.258Z,67.61
2023-05-01T01:19:22.350Z,67.73
2023-05-01T01:21:51.754Z,67.79
2023-05-01T01:24:43.454Z,67.82
2023-05-01T01:27:20.702Z,67.36
2023-05-01T01:29:57.281Z,67.25
2023-05-01T01:32:46.009Z,67.38
2023-05-01T01:35:20.324Z,67.50
2023-05-01T01:38:06.899Z,66.99
2023-05-01T01:40:45.898Z,67.47
2023-05-01T01:43:14.198Z,67.55
2023-05-01T01:45:43.562Z,67.57
2023-05-01T01:48:15.408Z,67.52
2023-05-01T01:50:43.476Z,67.87
2023-05-01T01:53:12.122Z,67.84
2023-05-01T01:55:40.383Z,67.74
2023-05-01T01:58:09.487Z,68.19
2023-05-01T02:00:37.056Z,67.73
2023-05-01T02:03:04.112Z,67.57
2023-05-01T02:05:32.183Z,67.51
2023-05-01T02:07:59.382Z,67.18
2023-05-01T02:10:28.048Z,68.07
2023-05-01T02:12:57.100Z,67.26
2023-05-01T02:15:25.007Z,67.22
2023-05-01T02:17:52.716Z,67.25
2023-05-01T02:20:20.209Z,67.55
2023-05-01T02:22:47.664Z,66.98
2023-05-01T02:25:15.646Z,67.06
2023-05-01T02:27:50.870Z,67.03
2023-05-01T02:30:18.925Z,66.98
2023-05-01T02:32:45.669Z,66.98
2023-05-01T02:35:12.441Z,66.99
2023-05-01T02:37:39.558Z,67.07
2023-05-01T02:40:07.735Z,67.16
2023-05-01T02:42:36.940Z,66.94
2023-05-01T02:45:06.827Z,67.12
2023-05-01T02:47:38.579Z,67.28
2023-05-01T02:50:06.803Z,68.08
2023-05-01T02:52:33.862Z,67.71
2023-05-01T02:55:19.247Z,67.66
2023-05-01T02:57:46.050Z,68.03
2023-05-01T03:00:14.407Z,67.82
2023-05-01T03:02:41.299Z,68.33
2023-05-01T03:05:08.802Z,68.25
2023-05-01T03:07:35.676Z,68.19
2023-05-01T03:10:06.493Z,68.20
2023-05-01T03:12:33.248Z,68.25
2023-05-01T03:15:00.354Z,68.31
2023-05-01T03:17:27.487Z,68.57
2023-05-01T03:19:54.438Z,68.80
2023-05-01T03:22:21.458Z,68.82
2023-05-01T03:24:48.141Z,68.80
2023-05-01T03:27:14.900Z,68.65
2023-05-01T03:29:41.736Z,68.75
2023-05-01T03:32:08.480Z,68.66
2023-05-01T03:34:35.714Z,68.10
2023-05-01T03:37:02.390Z,68.46
2023-05-01T03:39:29.224Z,68.48
2023-05-01T03:42:28.040Z,68.65
2023-05-01T03:45:00.649Z,68.80
2023-05-01T03:47:29.158Z,69.03
2023-05-01T03:49:56.302Z,69.01
2023-05-01T03:52:23.508Z,68.85
2023-05-01T03:54:51.830Z,69.27
2023-05-01T03:57:25.261Z,68.83
2023-05-01T03:59:51.950Z,69.08
2023-05-01T04:02:19.639Z,69.07
2023-05-01T04:04:46.995Z,69.25
2023-05-01T04:07:13.992Z,68.94
2023-05-01T04:09:41.405Z,68.79
2023-05-01T04:12:08.188Z,69.17
2023-05-01T04:14:34.979Z,69.29
2023-05-01T04:17:02.597Z,69.24
2023-05-01T04:19:33.002Z,69.16
2023-05-01T04:22:00.607Z,69.23
2023-05-01T04:24:28.550Z,69.22
2023-05-01T04:26:55.273Z,69.64
2023-05-01T04:29:22.016Z,69.06
2023-05-01T04:31:48.835Z,69.47
2023-05-01T04:34:16.440Z,68.89
2023-05-01T04:36:43.160Z,69.05
2023-05-01T04:39:10.706Z,68.70
2023-05-01T04:41:37.504Z,68.49
2023-05-01T04:44:05.670Z,67.97
2023-05-01T04:46:32.510Z,68.28
2023-05-01T04:48:59.292Z,68.55
2023-05-01T04:51:26.068Z,68.04
2023-05-01T04:53:54.321Z,67.53
2023-05-01T04:56:25.807Z,67.46
2023-05-01T04:58:56.627Z,67.35
2023-05-01T05:01:25.852Z,67.34
2023-05-01T05:03:53.043Z,67.03
2023-05-01T05:06:20.197Z,67.19
2023-05-01T05:08:47.002Z,67.40
2023-05-01T05:11:13.698Z,67.38
2023-05-01T05:13:48.424Z,67.25
2023-05-01T05:16:15.849Z,67.57
2023-05-01T05:18:42.726Z,67.89
2023-05-01T05:21:10.796Z,67.71
2023-05-01T05:23:41.371Z,67.84
2023-05-01T05:26:08.117Z,67.59
2023-05-01T05:28:34.818Z,67.78
2023-05-01T05:31:02.029Z,67.27
2023-05-01T05:33:29.398Z,67.40
2023-05-01T05:35:58.862Z,67.41
2023-05-01T05:38:28.744Z,67.46
2023-05-01T05:40:59.516Z,67.38
2023-05-01T05:43:27.958Z,67.12
2023-05-01T05:45:59.583Z,66.46
2023-05-01T05:48:28.007Z,66.86
2023-05-01T05:50:55.310Z,66.75
2023-05-01T05:53:24.328Z,66.34
2023-05-01T05:55:53.052Z,66.03
2023-05-01T05:58:24.296Z,65.84
2023-05-01T06:00:53.218Z,65.96
2023-05-01T06:03:20.127Z,66.00
2023-05-01T06:05:47.763Z,66.09
2023-05-01T06:08:14.676Z,66.32
2023-05-01T06:10:45.049Z,66.32
2023-05-01T06:13:13.472Z,66.17
2023-05-01T06:15:43.947Z,66.47
2023-05-01T06:18:12.025Z,66.10
2023-05-01T06:20:39.219Z,66.22
2023-05-01T06:23:06.049Z,66.37
2023-05-01T06:25:49.634Z,66.16
2023-05-01T06:28:16.396Z,65.66
2023-05-01T06:30:43.422Z,65.59
2023-05-01T06:33:11.021Z,66.02
2023-05-01T06:35:40.081Z,65.88
2023-05-01T06:38:06.827Z,65.65
2023-05-01T06:40:35.400Z,66.11
2023-05-01T06:43:03.297Z,66.23
2023-05-01T06:45:30.533Z,66.15
2023-05-01T06:47:57.508Z,65.89
2023-05-01T06:50:24.289Z,65.67
2023-05-01T06:52:51.032Z,65.65
2023-05-01T06:55:17.721Z,65.22
2023-05-01T06:57:44.695Z,64.64
2023-05-01T07:00:12.610Z,64.48
2023-05-01T07:02:40.875Z,64.51
2023-05-01T07:05:07.857Z,64.51
2023-05-01T07:07:34.595Z,64.69
2023-05-01T07:10:02.299Z,64.27
2023-05-01T07:12:30.036Z,64.49
2023-05-01T07:15:00.066Z,64.36
2023-05-01T07:17:27.176Z,64.14
2023-05-01T07:19:53.964Z,63.41
2023-05-01T07:22:20.836Z,63.68
2023-05-01T07:24:47.605Z,63.38
2023-05-01T07:27:14.418Z,63.73
2023-05-01T07:29:41.421Z,63.76
2023-05-01T07:32:08.416Z,64.33
2023-05-01T07:34:35.320Z,64.19
2023-05-01T07:37:02.291Z,64.77
2023-05-01T07:39:29.227Z,64.63
2023-05-01T07:41:57.745Z,64.08
2023-05-01T07:44:24.666Z,64.28
2023-05-01T07:46:51.708Z,64.24
2023-05-01T07:49:18.442Z,64.82
2023-05-01T07:51:45.710Z,65.66
2023-05-01T07:54:15.078Z,65.45
2023-05-01T07:56:41.981Z,65.35
2023-05-01T07:59:08.717Z,65.51
2023-05-01T08:01:36.591Z,65.40
2023-05-01T08:04:03.467Z,65.24
2023-05-01T08:06:30.646Z,64.91
2023-05-01T08:08:57.415Z,64.64
2023-05-01T08:11:25.263Z,64.18
2023-05-01T08:13:51.966Z,62.94
2023-05-01T08:16:22.019Z,63.13
2023-05-01T08:18:49.168Z,63.03
2023-05-01T08:21:15.928Z,62.72
2023-05-01T08:23:42.914Z,62.06
2023-05-01T08:26:09.653Z,61.92
2023-05-01T08:28:36.370Z,61.47
2023-05-01T08:31:03.876Z,61.61
2023-05-01T08:33:30.631Z,61.33
2023-05-01T08:35:57.362Z,61.44
2023-05-01T08:38:24.464Z,60.79
2023-05-01T08:40:53.382Z,61.01
2023-05-01T08:43:20.903Z,61.32
2023-05-01T08:45:47.893Z,61.06
2023-05-01T08:48:17.627Z,61.69
2023-05-01T08:50:46.827Z,61.13
2023-05-01T08:53:15.938Z,61.26
2023-05-01T08:55:45.970Z,60.21
2023-05-01T08:58:13.840Z,60.07
2023-05-01T09:00:40.721Z,59.65
2023-05-01T09:03:07.906Z,58.78
2023-05-01T09:05:34.877Z,59.73
2023-05-01T09:08:01.660Z,58.11
2023-05-01T09:10:28.594Z,57.15
2023-05-01T09:12:58.189Z,57.72
2023-05-01T09:15:29.077Z,55.58
2023-05-01T09:17:57.361Z,55.21
2023-05-01T09:20:24.618Z,56.49
2023-05-01T09:22:52.054Z,56.29
2023-05-01T09:25:19.570Z,56.93
2023-05-01T09:27:46.436Z,54.46
2023-05-01T09:30:36.894Z,52.95
2023-05-01T09:33:10.456Z,53.28
2023-05-01T09:35:57.270Z,53.64
2023-05-01T09:38:28.864Z,52.04
2023-05-01T09:40:57.403Z,52.83
2023-05-01T09:43:26.913Z,52.48
2023-05-01T09:46:20.700Z,53.69
2023-05-01T09:48:58.905Z,51.91
2023-05-01T09:51:33.209Z,51.99
2023-05-01T09:54:02.102Z,52.09
2023-05-01T09:56:34.263Z,53.85
2023-05-01T09:59:18.421Z,53.58
2023-05-01T10:01:46.815Z,50.50
2023-05-01T10:04:14.321Z,52.13
2023-05-01T10:06:41.679Z,52.83
2023-05-01T10:09:17.185Z,53.82
2023-05-01T10:11:59.357Z,53.63
2023-05-01T10:14:28.401Z,53.54
2023-05-01T10:16:58.061Z,53.88
2023-05-01T10:19:25.625Z,52.38
2023-05-01T10:21:53.617Z,52.12
2023-05-01T10:24:20.593Z,52.03
2023-05-01T10:26:49.117Z,51.71
2023-05-01T10:29:16.225Z,50.81
2023-05-01T10:31:43.202Z,51.96
2023-05-01T10:34:12.294Z,51.28
2023-05-01T10:36:43.805Z,50.28
2023-05-01T10:39:34.207Z,50.14
2023-05-01T10:42:14.274Z,51.25
2023-05-01T10:44:42.067Z,50.80
2023-05-01T10:47:28.430Z,51.02
2023-05-01T10:50:12.315Z,53.98
2023-05-01T10:53:09.968Z,49.77
2023-05-01T10:55:37.638Z,51.40
2023-05-01T10:58:04.734Z,51.35
2023-05-01T11:00:32.660Z,50.47
2023-05-01T11:03:21.182Z,51.23
2023-05-01T11:06:00.593Z,53.31
2023-05-01T11:08:36.002Z,53.18
2023-05-01T11:11:23.180Z,51.46
2023-05-01T11:14:06.362Z,50.61
2023-05-01T11:16:46.366Z,49.57
2023-05-01T11:19:19.105Z,49.28
2023-05-01T11:21:45.886Z,48.96
2023-05-01T11:24:12.902Z,49.92
2023-05-01T11:26:41.246Z,50.85
2023-05-01T11:29:10.713Z,50.14
2023-05-01T11:31:38.818Z,50.50
2023-05-01T11:34:08.885Z,51.84
2023-05-01T11:36:49.534Z,51.83
2023-05-01T11:39:19.650Z,50.67
2023-05-01T11:41:46.471Z,49.96
2023-05-01T11:44:17.545Z,48.38
2023-05-01T11:46:44.604Z,48.23
2023-05-01T11:49:11.597Z,48.27
2023-05-01T11:51:38.375Z,48.49
2023-05-01T11:54:05.768Z,48.17
2023-05-01T11:56:34.200Z,49.88
2023-05-01T11:59:12.295Z,48.56
2023-05-01T12:01:41.182Z,48.74
2023-05-01T12:04:08.834Z,49.37
2023-05-01T12:06:40.901Z,48.89
2023-05-01T12:09:08.869Z,48.61
2023-05-01T12:11:36.055Z,48.99
2023-05-01T12:14:02.921Z,48.75
2023-05-01T12:16:30.309Z,48.90
2023-05-01T12:18:57.176Z,49.72
2023-05-01T12:21:25.448Z,49.38
2023-05-01T12:23:52.351Z,49.22
2023-05-01T12:26:19.973Z,51.02
2023-05-01T12:29:09.880Z,48.22
2023-05-01T12:31:37.093Z,48.06
2023-05-01T12:34:06.260Z,47.02
2023-05-01T12:36:35.893Z,47.34
2023-05-01T12:39:04.745Z,46.84
2023-05-01T12:41:37.946Z,47.91
2023-05-01T12:44:24.672Z,45.78
2023-05-01T12:47:09.373Z,46.16
2023-05-01T12:49:37.530Z,45.11
2023-05-01T12:52:06.395Z,46.37
2023-05-01T12:54:38.306Z,47.59
2023-05-01T12:57:16.201Z,45.43
2023-05-01T12:59:45.082Z,46.75
2023-05-01T13:02:15.279Z,44.77
2023-05-01T13:04:43.892Z,44.48
2023-05-01T13:07:16.350Z,45.00
2023-05-01T13:09:57.832Z,48.27
2023-05-01T13:12:26.503Z,45.98
2023-05-01T13:14:53.860Z,45.36
2023-05-01T13:17:28.350Z,46.25
2023-05-01T13:19:59.948Z,45.88
2023-05-01T13:22:34.539Z,45.61
2023-05-01T13:25:03.351Z,47.02
2023-05-01T13:27:30.205Z,47.97
2023-05-01T13:29:58.881Z,45.13
2023-05-01T13:32:26.725Z,46.18
2023-05-01T13:34:54.516Z,47.32
2023-05-01T13:37:23.882Z,46.56
2023-05-01T13:39:51.067Z,47.37
2023-05-01T13:42:27.529Z,48.16
2023-05-01T13:44:57.884Z,48.69
2023-05-01T13:47:28.878Z,50.39
2023-05-01T13:49:56.009Z,48.63
2023-05-01T13:52:23.360Z,48.19
2023-05-01T13:54:53.219Z,49.46
2023-05-01T13:57:20.150Z,50.58
2023-05-01T13:59:48.022Z,50.12
2023-05-01T14:02:25.553Z,50.44
2023-05-01T14:04:52.353Z,52.75
2023-05-01T14:07:21.377Z,53.82
2023-05-01T14:09:55.102Z,55.49
2023-05-01T14:12:34.160Z,57.14
2023-05-01T14:15:02.146Z,55.58
2023-05-01T14:17:33.841Z,55.68
2023-05-01T14:20:01.397Z,56.09
2023-05-01T14:22:45.565Z,56.51
2023-05-01T14:25:24.892Z,56.97
2023-05-01T14:27:53.811Z,55.95
2023-05-01T14:30:33.713Z,57.00
2023-05-01T14:33:04.935Z,56.68
2023-05-01T14:35:31.901Z,58.18
2023-05-01T14:38:12.827Z,58.31
2023-05-01T14:40:43.412Z,55.40
2023-05-01T14:43:11.278Z,55.11
2023-05-01T14:45:41.930Z,55.52
2023-05-01T14:48:09.707Z,53.91
2023-05-01T14:50:37.007Z,52.36
2023-05-01T14:53:03.983Z,52.29
2023-05-01T14:55:34.886Z,51.20
2023-05-01T14:58:02.223Z,49.00
2023-05-01T15:00:29.125Z,49.82
2023-05-01T15:02:55.978Z,50.04
2023-05-01T15:05:24.086Z,50.36
2023-05-01T15:07:51.242Z,48.42
2023-05-01T15:10:18.064Z,51.35
2023-05-01T15:12:44.792Z,48.38
2023-05-01T15:15:11.780Z,49.16
2023-05-01T15:17:38.539Z,50.08
2023-05-01T15:20:06.371Z,52.47
2023-05-01T15:22:33.163Z,53.01
2023-05-01T15:25:00.186Z,54.05
2023-05-01T15:27:27.756Z,50.82
2023-05-01T15:29:54.582Z,54.41
